KSSF/SSF METAR and TAF weather

Enter ICAO airport designator
Station Type Date Time Source
KSSF METAR 2022/06/26 08:03 UTC NOAA

KSSF 260803Z AUTO 15004KT 10SM FEW021 25/23 A3004 RMK AO2 T02500228 $


Station Type Date Time Source
KSSF Decoded METAR 2022/06/26 08:03 UTC NOAA

SAN ANTONIO STINSON MUNI, TX, United States (KSSF) 29-20N 098-28W 176M
Jun 26, 2022 - 04:03 AM EDT / 2022.06.26 0803 UTC
Wind: from the SSE (150 degrees) at 5 MPH (4 KT):0
Visibility: 10 mile(s):0
Sky conditions: mostly clear
Temperature: 77.0 F (25.0 C)
Dew Point: 73.0 F (22.8 C)
Relative Humidity: 87%
Pressure (altimeter): 30.04 in. Hg (1017 hPa)
ob: KSSF 260803Z AUTO 15004KT 10SM FEW021 25/23 A3004 RMK AO2 T02500228
cycle: 8

Station Type Date Time Source
KSSF TAF 2022/06/26 07:42 UTC NOAA

TAF
AMD KSSF 260639Z 2607/2706 15005KT P6SM SKC
TEMPO 2610/2613 BKN030
FM261400 15006KT P6SM FEW060
FM261700 12010KT P6SM FEW060

Example: see airport list